createdAt,value
2022-11-21T00:04:52.754Z,6.06
2022-11-21T00:09:57.777Z,6.06
2022-11-21T00:15:01.537Z,6.08
2022-11-21T00:20:05.860Z,6.09
2022-11-21T00:25:11.473Z,6.06
2022-11-21T00:30:15.990Z,6.03
2022-11-21T00:35:20.016Z,5.99
2022-11-21T00:40:25.058Z,5.90
2022-11-21T00:45:28.916Z,5.81
2022-11-21T00:50:32.588Z,5.74
2022-11-21T00:55:38.022Z,5.68
2022-11-21T01:00:41.851Z,5.66
2022-11-21T01:05:45.602Z,5.60
2022-11-21T01:10:50.592Z,5.54
2022-11-21T01:15:54.340Z,5.56
2022-11-21T01:21:00.781Z,5.56
2022-11-21T01:26:07.811Z,5.52
2022-11-21T01:31:13.447Z,5.47
2022-11-21T01:36:19.570Z,5.38
2022-11-21T01:41:26.838Z,5.32
2022-11-21T01:46:30.527Z,5.24
2022-11-21T01:51:37.889Z,5.19
2022-11-21T01:56:47.933Z,5.19
2022-11-21T02:01:54.963Z,5.21
2022-11-21T02:06:59.524Z,5.22
2022-11-21T02:12:09.545Z,5.19
2022-11-21T02:17:13.256Z,5.11
2022-11-21T02:22:28.987Z,5.09
2022-11-21T02:27:34.320Z,5.08
2022-11-21T02:32:39.894Z,5.09
2022-11-21T02:37:45.775Z,5.12
2022-11-21T02:43:00.542Z,5.13
2022-11-21T02:48:04.699Z,5.15
2022-11-21T02:53:10.698Z,5.18
2022-11-21T02:58:15.740Z,5.18
2022-11-21T03:03:19.439Z,5.15
2022-11-21T03:08:23.132Z,5.09
2022-11-21T03:13:28.160Z,5.05
2022-11-21T03:18:31.901Z,5.03
2022-11-21T03:23:35.726Z,5.05
2022-11-21T03:28:42.776Z,5.06
2022-11-21T03:33:46.517Z,5.05
2022-11-21T03:38:50.330Z,5.08
2022-11-21T03:43:55.364Z,5.11
2022-11-21T03:48:59.402Z,5.16
2022-11-21T03:54:03.704Z,5.19
2022-11-21T03:59:08.811Z,5.23
2022-11-21T04:04:12.581Z,5.25
2022-11-21T04:09:16.302Z,5.26
2022-11-21T04:14:21.285Z,5.25
2022-11-21T04:19:24.969Z,5.25
2022-11-21T04:24:28.989Z,5.21
2022-11-21T04:29:34.189Z,5.23
2022-11-21T04:34:39.682Z,5.25
2022-11-21T04:39:43.354Z,5.27
2022-11-21T04:44:48.398Z,5.29
2022-11-21T04:49:52.107Z,5.27
2022-11-21T04:54:55.816Z,5.28
2022-11-21T05:00:00.898Z,5.28
2022-11-21T05:05:04.881Z,5.32
2022-11-21T05:10:09.433Z,5.34
2022-11-21T05:15:14.477Z,5.34
2022-11-21T05:20:19.069Z,5.31
2022-11-21T05:25:22.925Z,5.29
2022-11-21T05:30:27.965Z,5.35
2022-11-21T05:35:31.795Z,5.38
2022-11-21T05:40:35.495Z,5.42
2022-11-21T05:45:40.520Z,5.44
2022-11-21T05:50:47.878Z,5.44
2022-11-21T05:55:51.563Z,5.35
2022-11-21T06:01:00.300Z,5.34
2022-11-21T06:06:07.418Z,5.33
2022-11-21T06:11:13.254Z,5.30
2022-11-21T06:16:20.450Z,5.31
2022-11-21T06:21:25.881Z,5.27
2022-11-21T06:26:29.731Z,5.29
2022-11-21T06:31:34.775Z,5.33
2022-11-21T06:36:38.422Z,5.29
2022-11-21T06:41:42.243Z,5.23
2022-11-21T06:46:51.278Z,5.16
2022-11-21T06:51:55.505Z,5.18
2022-11-21T06:56:59.368Z,5.11
2022-11-21T07:02:04.495Z,5.07
2022-11-21T07:07:08.482Z,5.02
2022-11-21T07:12:32.209Z,4.96
2022-11-21T07:17:37.282Z,5.03
2022-11-21T07:22:41.095Z,5.00
2022-11-21T07:27:44.766Z,5.00
2022-11-21T07:32:56.313Z,5.01
2022-11-21T07:38:00.306Z,4.98
2022-11-21T07:43:09.584Z,4.95
2022-11-21T07:48:16.129Z,4.97
2022-11-21T07:53:19.828Z,5.02
2022-11-21T07:58:23.643Z,5.06
2022-11-21T08:03:28.632Z,5.07
2022-11-21T08:08:32.882Z,5.10
2022-11-21T08:13:36.964Z,5.09
2022-11-21T08:18:42.084Z,5.09
2022-11-21T08:23:45.781Z,5.05
2022-11-21T08:28:49.493Z,5.08
2022-11-21T08:33:58.191Z,5.12
2022-11-21T08:39:02.152Z,5.08
2022-11-21T08:44:09.859Z,5.11
2022-11-21T08:49:18.792Z,5.18
2022-11-21T08:54:24.219Z,5.18
2022-11-21T08:59:28.042Z,5.22
2022-11-21T09:04:33.182Z,5.31
2022-11-21T09:09:36.880Z,5.34
2022-11-21T09:14:58.394Z,5.47
2022-11-21T09:20:03.468Z,5.56
2022-11-21T09:25:07.641Z,5.66
2022-11-21T09:30:12.443Z,5.75
2022-11-21T09:35:17.595Z,5.86
2022-11-21T09:40:21.566Z,6.01
2022-11-21T09:45:31.340Z,6.03
2022-11-21T09:50:39.055Z,6.20
2022-11-21T09:55:47.358Z,6.33
2022-11-21T10:00:52.928Z,6.40
2022-11-21T10:06:03.219Z,6.53
2022-11-21T10:11:20.312Z,6.60
2022-11-21T10:16:39.206Z,6.54
2022-11-21T10:22:24.322Z,6.73
2022-11-21T10:27:33.502Z,6.98
2022-11-21T10:32:40.236Z,7.11
2022-11-21T10:37:50.988Z,7.16
2022-11-21T10:43:21.315Z,7.41
2022-11-21T10:48:25.003Z,7.65
2022-11-21T10:53:48.055Z,7.82
2022-11-21T10:58:54.041Z,7.79
2022-11-21T11:04:40.610Z,7.87
2022-11-21T11:09:46.990Z,8.10
2022-11-21T11:14:53.548Z,8.31
2022-11-21T11:20:06.924Z,8.22
2022-11-21T11:25:11.962Z,8.55
2022-11-21T11:30:17.518Z,8.54
2022-11-21T11:35:24.183Z,8.55
2022-11-21T11:40:33.991Z,8.81
2022-11-21T11:46:11.536Z,8.89
2022-11-21T11:51:22.937Z,9.04
2022-11-21T11:56:30.874Z,9.21
2022-11-21T12:01:40.574Z,9.22
2022-11-21T12:08:06.000Z,9.30
2022-11-21T12:12:19.664Z,9.17
2022-11-21T12:17:36.334Z,9.24
2022-11-21T12:22:40.162Z,8.84
2022-11-21T12:27:50.301Z,9.16
2022-11-21T12:33:03.568Z,9.18
2022-11-21T12:38:27.117Z,9.19
2022-11-21T12:43:40.954Z,9.09
2022-11-21T12:49:13.407Z,9.03
2022-11-21T12:54:34.307Z,8.93
2022-11-21T12:59:49.548Z,8.96
2022-11-21T13:04:57.119Z,8.65
2022-11-21T13:10:04.115Z,8.84
2022-11-21T13:15:20.596Z,8.88
2022-11-21T13:20:32.815Z,8.47
2022-11-21T13:25:39.244Z,8.62
2022-11-21T13:30:49.666Z,8.42
2022-11-21T13:36:07.047Z,8.46
2022-11-21T13:41:28.466Z,8.45
2022-11-21T13:47:02.290Z,8.44
2022-11-21T13:52:09.602Z,8.36
2022-11-21T13:57:27.957Z,8.22
2022-11-21T14:03:21.020Z,8.23
2022-11-21T14:08:27.004Z,8.10
2022-11-21T14:13:33.963Z,8.09
2022-11-21T14:18:40.326Z,8.14
2022-11-21T14:23:45.387Z,8.00
2022-11-21T14:28:49.315Z,7.89
2022-11-21T14:33:58.871Z,7.78
2022-11-21T14:44:32.916Z,7.70
2022-11-21T14:49:38.052Z,7.72
2022-11-21T14:55:22.479Z,7.76
2022-11-21T15:06:01.739Z,7.74
2022-11-21T15:11:06.219Z,7.74
2022-11-21T15:16:10.079Z,7.73
2022-11-21T15:21:17.432Z,7.71
2022-11-21T15:26:30.625Z,7.66
2022-11-21T15:31:34.433Z,7.64
2022-11-21T15:36:39.490Z,7.58
2022-11-21T15:41:43.401Z,7.41
2022-11-21T15:46:47.588Z,7.50
2022-11-21T15:52:07.111Z,7.57
2022-11-21T15:57:11.640Z,7.52
2022-11-21T16:02:16.119Z,7.39
2022-11-21T16:07:21.231Z,7.42
2022-11-21T16:12:24.998Z,7.45
2022-11-21T16:17:28.724Z,7.33
2022-11-21T16:22:34.164Z,7.30
2022-11-21T16:27:37.923Z,7.38
2022-11-21T16:32:41.649Z,7.33
2022-11-21T16:37:47.271Z,7.42
2022-11-21T16:42:51.016Z,7.42
2022-11-21T16:47:54.708Z,7.40
2022-11-21T16:52:59.824Z,7.36
2022-11-21T16:58:03.617Z,7.31
2022-11-21T17:03:07.366Z,7.27
2022-11-21T17:08:12.448Z,7.34
2022-11-21T17:13:16.123Z,7.31
2022-11-21T17:18:19.921Z,7.30
2022-11-21T17:23:25.165Z,7.28
2022-11-21T17:28:29.645Z,7.28
2022-11-21T17:33:33.458Z,7.22
2022-11-21T17:38:39.843Z,7.24
2022-11-21T17:43:44.156Z,7.16
2022-11-21T17:48:54.638Z,7.24
2022-11-21T17:54:01.660Z,7.18
2022-11-21T17:59:06.484Z,7.18
2022-11-21T18:04:14.814Z,7.18
2022-11-21T18:09:20.539Z,7.23
2022-11-21T18:14:24.263Z,7.22
2022-11-21T18:19:28.116Z,7.21
2022-11-21T18:24:33.331Z,7.23
2022-11-21T18:29:37.452Z,7.24
2022-11-21T18:34:41.315Z,7.14
2022-11-21T18:39:46.323Z,7.11
2022-11-21T18:44:51.790Z,7.05
2022-11-21T18:49:55.539Z,6.97
2022-11-21T18:55:00.718Z,7.00
2022-11-21T19:00:06.140Z,6.90
2022-11-21T19:05:10.135Z,6.88
2022-11-21T19:10:41.365Z,6.89
2022-11-21T19:15:39.197Z,6.83
2022-11-21T19:20:43.061Z,6.84
2022-11-21T19:25:48.074Z,6.83
2022-11-21T19:30:51.894Z,6.71
2022-11-21T19:35:55.574Z,6.74
2022-11-21T19:41:17.117Z,6.70
2022-11-21T19:46:22.464Z,6.73
2022-11-21T19:51:30.093Z,6.72
2022-11-21T19:56:35.988Z,6.68
2022-11-21T20:01:40.264Z,6.65
2022-11-21T20:06:46.071Z,6.64
2022-11-21T20:11:52.761Z,6.67
2022-11-21T20:16:56.746Z,6.70
2022-11-21T20:22:00.516Z,6.59
2022-11-21T20:27:05.718Z,6.61
2022-11-21T20:32:09.589Z,6.62
2022-11-21T20:37:13.336Z,6.55
2022-11-21T20:42:18.525Z,6.59
2022-11-21T20:47:22.245Z,6.62
2022-11-21T20:57:50.987Z,6.62
2022-11-21T21:02:54.701Z,6.58
2022-11-21T21:07:58.466Z,6.55
2022-11-21T21:13:03.550Z,6.54
2022-11-21T21:18:07.271Z,6.55
2022-11-21T21:23:10.949Z,6.60
2022-11-21T21:28:16.024Z,6.53
2022-11-21T21:33:19.994Z,6.53
2022-11-21T21:38:23.699Z,6.53
2022-11-21T21:43:28.915Z,6.47
2022-11-21T21:48:32.724Z,6.46
2022-11-21T21:53:37.656Z,6.46
2022-11-21T21:58:44.155Z,6.40
2022-11-21T22:03:48.425Z,6.46
2022-11-21T22:08:52.376Z,6.42
2022-11-21T22:13:59.486Z,6.47
2022-11-21T22:19:03.270Z,6.51
2022-11-21T22:24:28.704Z,6.50
2022-11-21T22:29:33.943Z,6.56
2022-11-21T22:34:37.742Z,6.55
2022-11-21T22:39:41.483Z,6.57
2022-11-21T22:44:46.588Z,6.56
2022-11-21T22:49:50.426Z,6.50
2022-11-21T22:54:54.205Z,6.57
2022-11-21T22:59:59.270Z,6.61
2022-11-21T23:05:03.201Z,6.59
2022-11-21T23:10:08.120Z,6.60
2022-11-21T23:15:13.345Z,6.68
2022-11-21T23:20:17.728Z,6.68
2022-11-21T23:25:21.419Z,6.71
2022-11-21T23:30:26.567Z,6.67
2022-11-21T23:35:30.302Z,6.70
2022-11-21T23:40:34.018Z,6.75
2022-11-21T23:45:39.033Z,6.68
2022-11-21T23:50:42.722Z,6.70
2022-11-21T23:55:46.824Z,6.71
